Time;durP1;ratioP1;P1;durP2;ratioP2;P2;SDS_P1;SDS_P2;PMS_P1;PMS_P2;Temp;Humidity;BMP_temperature;BMP_pressure;BME280_temperature;BME280_humidity;BME280_pressure;Samples;Min_cycle;Max_cycle;Signal;HPM_P1;HPM_P2
2022/10/08 00:01:09;;;;;;;38.42;21.85;;;;;;;6.53;76.37;101410.63;1609557;88;21096;-79
2022/10/08 00:03:42;;;;;;;36.95;23.12;;;;;;;6.54;76.51;101408.91;1627890;87;21835;-86
2022/10/08 00:06:21;;;;;;;34.08;21.42;;;;;;;6.54;76.61;101401.95;1626990;87;21126;-86
2022/10/08 00:08:54;;;;;;;33.90;20.95;;;;;;;6.56;76.60;101400.72;1612216;88;21758;-86
2022/10/08 00:11:24;;;;;;;33.48;20.77;;;;;;;6.57;76.70;101397.30;1607127;87;21574;-86
2022/10/08 00:13:52;;;;;;;27.52;18.25;;;;;;;6.55;76.75;101388.06;1602201;87;21160;-80
2022/10/08 00:16:23;;;;;;;28.98;18.98;;;;;;;6.57;76.85;101382.91;1602961;87;21813;-86
2022/10/08 00:18:51;;;;;;;24.12;18.07;;;;;;;6.55;76.75;101375.38;1618194;87;21199;-87
2022/10/08 00:21:23;;;;;;;32.70;19.57;;;;;;;6.54;76.80;101384.05;1601873;87;21302;-87
2022/10/08 00:23:51;;;;;;;28.80;18.00;;;;;;;6.54;76.84;101381.44;1601579;88;21115;-86
2022/10/08 00:26:22;;;;;;;25.82;17.30;;;;;;;6.51;76.80;101376.04;1602257;87;21538;-86
2022/10/08 00:28:49;;;;;;;31.87;17.65;;;;;;;6.52;76.92;101375.23;1620373;88;21866;-79
2022/10/08 00:31:31;;;;;;;29.23;16.65;;;;;;;6.52;77.05;101368.70;1601378;87;21131;-79
2022/10/08 00:34:00;;;;;;;27.58;16.40;;;;;;;6.51;77.10;101369.08;1601050;87;21156;-79
2022/10/08 00:36:30;;;;;;;28.47;16.30;;;;;;;6.52;77.15;101361.73;1616819;88;21204;-80
2022/10/08 00:39:00;;;;;;;27.65;15.75;;;;;;;6.53;77.22;101358.70;1591090;88;37320;-86
2022/10/08 00:41:29;;;;;;;27.75;16.10;;;;;;;6.54;77.31;101354.86;1602604;88;21801;-86
2022/10/08 00:44:01;;;;;;;24.18;15.35;;;;;;;6.55;77.37;101354.06;1606606;88;21617;-88
2022/10/08 00:46:35;;;;;;;22.70;15.68;;;;;;;6.58;77.29;101358.53;1613628;87;21116;-88
2022/10/08 00:49:10;;;;;;;25.88;16.00;;;;;;;6.58;77.22;101352.00;1625277;87;21098;-87
2022/10/08 00:51:43;;;;;;;26.07;16.17;;;;;;;6.55;77.11;101351.45;1613406;87;21116;-80
2022/10/08 00:54:11;;;;;;;27.02;15.70;;;;;;;6.54;77.16;101346.13;1619523;87;23337;-87
2022/10/08 00:56:38;;;;;;;25.08;15.78;;;;;;;6.52;77.14;101339.51;1602660;87;21091;-80
2022/10/08 00:59:06;;;;;;;26.48;16.23;;;;;;;6.50;77.17;101336.34;1622413;87;21098;-87
2022/10/08 01:01:33;;;;;;;28.05;16.27;;;;;;;6.50;77.22;101332.00;1622346;88;21026;-86
2022/10/08 01:04:04;;;;;;;23.65;15.18;;;;;;;6.40;77.31;101314.02;1612413;88;21612;-80
2022/10/08 01:06:48;;;;;;;24.55;15.35;;;;;;;6.50;77.29;101331.11;1616828;86;22391;-88
2022/10/08 01:09:36;;;;;;;27.95;15.88;;;;;;;6.50;77.33;101331.11;1595019;88;21096;-88
2022/10/08 01:12:29;;;;;;;23.38;14.80;;;;;;;6.49;77.41;101331.91;1602177;88;21103;-80
2022/10/08 01:15:16;;;;;;;20.85;14.13;;;;;;;6.48;77.54;101324.48;1628373;86;21071;-80
2022/10/08 01:17:58;;;;;;;24.57;14.38;;;;;;;6.49;77.62;101322.34;1624964;86;21660;-80
2022/10/08 01:20:42;;;;;;;22.80;14.70;;;;;;;6.50;77.85;101326.77;1608539;87;21883;-80
2022/10/08 01:23:35;;;;;;;24.40;15.78;;;;;;;6.52;77.96;101325.13;1601750;87;21016;-80
2022/10/08 01:26:12;;;;;;;21.85;14.87;;;;;;;6.54;78.02;101323.48;1621635;87;21467;-87
2022/10/08 01:28:55;;;;;;;25.32;15.43;;;;;;;6.55;78.02;101317.83;1615827;87;21193;-80
2022/10/08 01:31:31;;;;;;;22.30;15.18;;;;;;;6.56;78.00;101314.41;1657796;85;21157;-80
2022/10/08 01:34:08;;;;;;;22.13;15.38;;;;;;;6.56;77.83;101309.17;1655291;85;21680;-80
2022/10/08 01:36:40;;;;;;;20.43;15.63;;;;;;;6.55;77.86;101307.36;1674462;85;21630;-79
2022/10/08 01:39:10;;;;;;;24.27;14.53;;;;;;;6.54;77.87;101306.90;1655573;85;21086;-88
2022/10/08 01:41:37;;;;;;;21.62;14.68;;;;;;;6.53;77.79;101309.01;1655676;85;21102;-88
2022/10/08 01:44:12;;;;;;;23.50;14.83;;;;;;;6.50;77.72;101303.65;1671572;84;21077;-88
2022/10/08 01:46:40;;;;;;;23.10;14.75;;;;;;;6.48;77.79;101299.64;1674064;85;21950;-80
2022/10/08 01:49:10;;;;;;;22.60;14.58;;;;;;;6.47;77.79;101303.06;1648484;85;21175;-80
2022/10/08 01:51:46;;;;;;;24.72;15.15;;;;;;;6.47;77.84;101296.94;1647988;85;21476;-88
2022/10/08 01:54:14;;;;;;;23.70;14.68;;;;;;;6.47;77.83;101302.17;1673296;85;21470;-88
2022/10/08 01:56:41;;;;;;;22.70;14.28;;;;;;;6.47;77.89;101300.45;1661310;85;21015;-80
2022/10/08 01:59:12;;;;;;;21.25;13.68;;;;;;;6.47;77.83;101295.64;1664926;85;21738;-87
2022/10/08 02:02:02;;;;;;;19.98;14.07;;;;;;;6.43;77.83;101292.86;1667191;84;21528;-79
2022/10/08 02:04:33;;;;;;;21.65;14.43;;;;;;;6.43;77.80;101290.23;1646694;85;21114;-80
2022/10/08 02:07:15;;;;;;;20.02;14.33;;;;;;;6.40;77.79;101283.95;1647230;85;21082;-80
2022/10/08 02:09:50;;;;;;;23.40;13.98;;;;;;;6.41;77.84;101283.15;1629550;85;21631;-80
2022/10/08 02:12:17;;;;;;;24.63;14.18;;;;;;;6.39;77.83;101279.14;1661921;85;21734;-87
2022/10/08 02:14:47;;;;;;;20.10;14.07;;;;;;;6.37;77.80;101276.87;1668248;85;21623;-87
2022/10/08 02:17:35;;;;;;;20.48;13.85;;;;;;;6.34;77.81;101275.81;1662921;85;21121;-87
2022/10/08 02:20:31;;;;;;;25.25;13.83;;;;;;;6.30;77.77;101277.37;1651005;85;21117;-87
2022/10/08 02:23:37;;;;;;;23.52;14.13;;;;;;;6.25;77.72;101272.34;1671961;85;21102;-80
2022/10/08 02:26:08;;;;;;;18.50;12.37;;;;;;;6.23;77.76;101269.64;1661971;85;21816;-80
2022/10/08 02:29:00;;;;;;;18.27;12.85;;;;;;;6.22;77.74;101269.56;1650261;85;21098;-80
2022/10/08 02:31:52;;;;;;;21.50;12.73;;;;;;;6.19;77.66;101268.09;1645560;85;21018;-86
2022/10/08 02:34:35;;;;;;;22.62;14.45;;;;;;;6.14;77.70;101267.86;1632857;86;21597;-80
2022/10/08 02:37:27;;;;;;;23.20;14.47;;;;;;;6.10;77.82;101271.15;1651762;85;21042;-87
2022/10/08 02:40:00;;;;;;;24.27;14.65;;;;;;;6.07;77.80;101266.17;1657134;85;21222;-86
2022/10/08 02:42:28;;;;;;;18.92;12.58;;;;;;;6.00;77.76;101263.63;1655007;85;21043;-80
2022/10/08 02:45:00;;;;;;;18.75;13.28;;;;;;;5.96;77.81;101259.96;1651799;85;21126;-87
2022/10/08 02:47:29;;;;;;;17.52;12.82;;;;;;;5.96;77.89;101254.73;1664291;85;21571;-80
2022/10/08 02:50:01;;;;;;;25.88;13.72;;;;;;;5.94;77.87;101261.56;1646795;85;21102;-87
2022/10/08 02:52:31;;;;;;;24.95;13.25;;;;;;;5.91;77.86;101261.81;1648088;85;21765;-80
2022/10/08 02:54:59;;;;;;;16.37;12.40;;;;;;;5.87;77.96;101262.48;1647814;85;21002;-80
2022/10/08 02:57:33;;;;;;;20.05;13.53;;;;;;;5.87;78.00;101259.45;1655584;85;21082;-88
2022/10/08 03:00:00;;;;;;;17.82;12.55;;;;;;;5.84;78.07;101253.67;1646757;85;21694;-86
2022/10/08 03:02:50;;;;;;;17.62;11.75;;;;;;;5.84;78.13;101254.09;1664018;85;21082;-80
2022/10/08 03:05:17;;;;;;;18.92;11.75;;;;;;;5.83;78.20;101255.77;1649080;85;21778;-87
2022/10/08 03:07:46;;;;;;;18.82;11.60;;;;;;;5.84;78.31;101249.75;1627947;86;21018;-87
2022/10/08 03:10:13;;;;;;;17.82;12.40;;;;;;;5.83;78.21;101247.94;1648978;85;21088;-87
2022/10/08 03:12:40;;;;;;;15.95;11.55;;;;;;;5.82;78.22;101249.19;1648903;86;21119;-86
2022/10/08 03:15:10;;;;;;;19.42;12.80;;;;;;;5.79;78.17;101247.30;1648427;85;21707;-86
2022/10/08 03:17:43;;;;;;;18.42;12.33;;;;;;;5.77;78.22;101247.63;1649162;85;21786;-85
2022/10/08 03:20:11;;;;;;;16.20;12.20;;;;;;;5.79;78.35;101239.88;1647673;85;21152;-85
2022/10/08 03:22:37;;;;;;;20.82;13.30;;;;;;;5.81;78.39;101234.32;1648752;85;21151;-89
2022/10/08 03:25:05;;;;;;;21.68;12.43;;;;;;;5.83;78.42;101246.63;1650553;86;21561;-80
2022/10/08 03:27:34;;;;;;;19.40;12.45;;;;;;;5.85;78.47;101246.72;1658232;86;21079;-80
2022/10/08 03:30:01;;;;;;;23.25;12.13;;;;;;;5.88;78.51;101237.75;1657638;86;21792;-80
2022/10/08 03:32:28;;;;;;;19.05;12.23;;;;;;;5.91;78.49;101228.77;1649908;85;21005;-80
2022/10/08 03:34:55;;;;;;;18.23;11.90;;;;;;;5.92;78.45;101226.63;1649942;85;21532;-86
2022/10/08 03:37:22;;;;;;;18.52;11.55;;;;;;;5.95;78.47;101231.10;1649254;86;21169;-87
2022/10/08 03:39:49;;;;;;;23.00;12.47;;;;;;;5.96;78.49;101229.91;1670302;85;22049;-89
2022/10/08 03:42:16;;;;;;;20.60;12.40;;;;;;;5.99;78.46;101228.77;1659625;85;21936;-88
2022/10/08 03:44:42;;;;;;;18.67;11.80;;;;;;;6.02;78.53;101228.02;1671143;84;21574;-80
2022/10/08 03:47:10;;;;;;;19.75;12.60;;;;;;;6.05;78.51;101221.66;1665202;85;21112;-87
2022/10/08 03:49:36;;;;;;;17.92;12.55;;;;;;;6.06;78.55;101215.59;1673263;85;21068;-87
2022/10/08 03:52:03;;;;;;;16.17;11.83;;;;;;;6.08;78.55;101213.98;1657865;84;21164;-79
2022/10/08 03:54:30;;;;;;;20.82;12.85;;;;;;;6.10;78.49;101212.34;1684737;85;22417;-79
2022/10/08 03:56:57;;;;;;;17.07;12.40;;;;;;;6.09;78.37;101222.71;1638348;86;20994;-79
2022/10/08 03:59:24;;;;;;;19.02;11.65;;;;;;;6.11;78.44;101224.98;1655528;84;21137;-78
2022/10/08 04:01:51;;;;;;;19.12;13.55;;;;;;;6.13;78.47;101228.58;1656661;84;21764;-86
2022/10/08 04:04:18;;;;;;;19.15;13.25;;;;;;;6.15;78.50;101226.94;1657008;85;21073;-87
2022/10/08 04:06:44;;;;;;;23.25;13.62;;;;;;;6.18;78.57;101227.10;1664748;84;22600;-86
2022/10/08 04:09:11;;;;;;;19.67;13.13;;;;;;;6.20;78.56;101221.53;1684898;85;21148;-87
2022/10/08 04:11:38;;;;;;;20.40;11.85;;;;;;;6.21;78.53;101223.31;1659956;85;21089;-79
2022/10/08 04:14:05;;;;;;;22.35;12.98;;;;;;;6.22;78.53;101227.73;1657119;84;21120;-79
2022/10/08 04:16:32;;;;;;;25.48;13.25;;;;;;;6.23;78.49;101225.59;1676614;85;21065;-80
2022/10/08 04:18:59;;;;;;;19.60;12.47;;;;;;;6.23;78.50;101218.67;1668667;85;21796;-80
2022/10/08 04:21:28;;;;;;;21.17;13.60;;;;;;;6.27;78.57;101216.19;1684279;85;21141;-80
2022/10/08 04:23:54;;;;;;;18.80;13.83;;;;;;;6.28;78.54;101215.38;1647858;85;21089;-81
2022/10/08 04:26:21;;;;;;;25.65;14.58;;;;;;;6.29;78.52;101209.31;1671613;85;21271;-81
2022/10/08 04:28:48;;;;;;;21.87;13.95;;;;;;;6.29;78.53;101206.31;1684320;85;21675;-81
2022/10/08 04:31:17;;;;;;;18.20;14.25;;;;;;;6.29;78.54;101202.39;1681445;85;21712;-80
2022/10/08 04:33:45;;;;;;;21.87;14.23;;;;;;;6.29;78.44;101204.08;1685533;85;21070;-80
2022/10/08 04:36:16;;;;;;;21.45;14.58;;;;;;;6.25;78.45;101201.76;1680314;85;21037;-82
2022/10/08 04:38:44;;;;;;;21.05;16.07;;;;;;;6.24;78.38;101210.41;1669032;85;21100;-88
2022/10/08 04:41:13;;;;;;;21.85;17.07;;;;;;;6.17;78.33;101207.88;1676315;85;21125;-81
2022/10/08 04:43:40;;;;;;;21.52;15.70;;;;;;;6.17;78.48;101211.80;1670321;85;21784;-87
2022/10/08 04:46:08;;;;;;;28.10;16.42;;;;;;;6.15;78.44;101213.87;1661065;85;21136;-81
2022/10/08 04:48:35;;;;;;;24.07;16.85;;;;;;;6.13;78.55;101208.97;1683288;84;21643;-80
2022/10/08 04:51:03;;;;;;;22.75;16.12;;;;;;;6.18;78.75;101208.38;1681799;85;21607;-87
2022/10/08 04:53:30;;;;;;;22.37;15.03;;;;;;;6.19;78.66;101204.04;1668074;85;21566;-92
2022/10/08 04:55:57;;;;;;;22.25;15.48;;;;;;;6.21;78.74;101205.94;1663756;85;21754;-90
2022/10/08 04:58:25;;;;;;;22.67;15.85;;;;;;;6.24;78.74;101202.56;1646920;85;21069;-84
2022/10/08 05:00:51;;;;;;;23.90;17.10;;;;;;;6.27;78.75;101197.50;1684903;85;21081;-85
2022/10/08 05:03:18;;;;;;;22.20;17.75;;;;;;;6.28;78.67;101195.35;1685003;85;21096;-83
2022/10/08 05:05:45;;;;;;;25.12;18.40;;;;;;;6.28;78.70;101192.73;1684145;85;21085;-90
2022/10/08 05:08:12;;;;;;;24.63;18.00;;;;;;;6.32;78.74;101200.33;1659216;85;21835;-81
2022/10/08 05:10:48;;;;;;;28.67;19.32;;;;;;;6.34;78.76;101198.26;1668092;85;21213;-85
2022/10/08 05:13:15;;;;;;;28.83;19.73;;;;;;;6.41;78.84;101201.67;1650382;85;21050;-83
2022/10/08 05:15:42;;;;;;;27.13;19.00;;;;;;;6.47;78.79;101204.11;1670633;85;21624;-82
2022/10/08 05:18:09;;;;;;;30.65;17.52;;;;;;;6.49;78.66;101210.30;1684186;85;21070;-83
2022/10/08 05:20:36;;;;;;;27.27;17.77;;;;;;;6.53;78.70;101213.16;1669135;85;21232;-83
2022/10/08 05:23:03;;;;;;;26.62;18.20;;;;;;;6.60;78.80;101209.11;1684167;85;21101;-82
2022/10/08 05:25:31;;;;;;;22.85;16.65;;;;;;;6.66;78.67;101215.94;1682023;85;21625;-87
2022/10/08 05:27:58;;;;;;;28.73;18.70;;;;;;;6.70;78.55;101219.20;1683434;85;21097;-88
2022/10/08 05:30:25;;;;;;;26.45;17.05;;;;;;;6.74;78.61;101225.06;1684415;85;21093;-82
2022/10/08 05:32:51;;;;;;;26.52;17.37;;;;;;;6.84;78.69;101226.39;1685013;85;21808;-82
2022/10/08 05:35:18;;;;;;;24.60;16.93;;;;;;;6.94;78.65;101220.76;1663105;85;21163;-88
2022/10/08 05:37:45;;;;;;;25.52;16.97;;;;;;;7.10;78.88;101227.63;1684902;85;21065;-88
2022/10/08 05:40:12;;;;;;;26.87;17.32;;;;;;;7.22;78.75;101227.29;1684945;85;21137;-88
2022/10/08 05:42:39;;;;;;;26.77;17.45;;;;;;;7.35;78.73;101219.59;1665407;85;21086;-88
2022/10/08 05:45:07;;;;;;;25.57;18.37;;;;;;;7.46;78.69;101219.66;1664021;85;21672;-82
2022/10/08 05:47:34;;;;;;;20.97;16.90;;;;;;;7.57;78.57;101221.04;1652410;85;21602;-82
2022/10/08 05:50:03;;;;;;;26.00;17.32;;;;;;;7.68;78.52;101220.64;1670452;85;21085;-88
2022/10/08 05:52:30;;;;;;;26.52;18.42;;;;;;;7.78;78.52;101221.08;1674890;85;21108;-82
2022/10/08 05:54:59;;;;;;;23.95;17.85;;;;;;;7.90;78.54;101209.34;1652079;85;21135;-87
2022/10/08 05:57:26;;;;;;;26.12;17.95;;;;;;;8.02;78.47;101211.62;1671471;85;21738;-82
2022/10/08 05:59:54;;;;;;;27.40;17.37;;;;;;;8.12;78.44;101213.78;1646412;86;21614;-82
2022/10/08 06:02:21;;;;;;;21.48;15.85;;;;;;;8.24;78.41;101209.06;1656963;85;21555;-82
2022/10/08 06:04:49;;;;;;;25.45;17.57;;;;;;;8.34;78.28;101214.27;1681114;85;21258;-82
2022/10/08 06:07:16;;;;;;;27.05;18.02;;;;;;;8.40;78.09;101201.83;1617748;86;21109;-88
2022/10/08 06:09:43;;;;;;;22.52;17.23;;;;;;;8.46;78.05;101210.86;1659967;84;21774;-82
2022/10/08 06:12:12;;;;;;;21.77;15.72;;;;;;;8.55;78.00;101210.35;1684804;85;21094;-87
2022/10/08 06:14:41;;;;;;;22.85;16.27;;;;;;;8.66;78.04;101203.80;1664479;84;21086;-88
2022/10/08 06:17:08;;;;;;;23.20;15.70;;;;;;;8.82;78.07;101202.70;1674205;85;21105;-89
2022/10/08 06:19:36;;;;;;;22.42;16.82;;;;;;;9.07;78.30;101193.14;1676024;85;21097;-87
2022/10/08 06:22:03;;;;;;;22.02;14.90;;;;;;;9.31;78.21;101190.55;1657076;85;21818;-87
2022/10/08 06:24:31;;;;;;;24.12;14.83;;;;;;;9.57;78.17;101199.79;1676836;84;21473;-82
2022/10/08 06:26:57;;;;;;;24.18;16.55;;;;;;;9.86;78.21;101196.89;1659912;84;21085;-81
2022/10/08 06:29:24;;;;;;;22.52;15.83;;;;;;;10.12;78.11;101193.42;1656813;85;21141;-81
2022/10/08 06:31:51;;;;;;;17.67;15.15;;;;;;;10.38;77.91;101190.81;1656945;85;21166;-81
2022/10/08 06:34:18;;;;;;;23.95;15.75;;;;;;;10.65;77.80;101197.80;1669377;85;21799;-90
2022/10/08 06:36:45;;;;;;;24.02;16.32;;;;;;;10.84;77.55;101190.94;1665173;85;21875;-87
2022/10/08 06:39:14;;;;;;;27.70;17.10;;;;;;;11.00;77.46;101190.08;1684729;85;21073;-82
2022/10/08 06:41:41;;;;;;;22.20;14.35;;;;;;;11.13;77.36;101183.05;1666432;85;21418;-81
2022/10/08 06:44:11;;;;;;;19.17;14.45;;;;;;;11.31;77.33;101183.98;1676840;85;21181;-82
2022/10/08 06:46:38;;;;;;;21.82;12.50;;;;;;;11.48;77.26;101191.94;1674000;85;21838;-82
2022/10/08 06:49:05;;;;;;;22.25;12.53;;;;;;;11.72;77.25;101196.13;1678968;85;21113;-88
2022/10/08 06:51:32;;;;;;;20.08;12.58;;;;;;;11.92;77.29;101196.71;1657375;84;21089;-81
2022/10/08 06:53:59;;;;;;;15.85;10.40;;;;;;;12.12;77.24;101187.98;1657051;84;21559;-82
2022/10/08 06:56:27;;;;;;;17.25;9.98;;;;;;;12.28;77.06;101180.03;1657128;85;21109;-87
2022/10/08 06:58:53;;;;;;;16.87;10.13;;;;;;;12.43;76.81;101179.09;1658517;85;21744;-81
2022/10/08 07:01:25;;;;;;;17.82;10.63;;;;;;;12.58;76.54;101179.87;1675761;85;21145;-81
2022/10/08 07:03:55;;;;;;;21.33;13.68;;;;;;;12.71;76.34;101183.70;1656957;85;21457;-82
2022/10/08 07:06:23;;;;;;;23.35;12.85;;;;;;;12.85;76.14;101189.30;1657038;84;21065;-88
2022/10/08 07:08:58;;;;;;;19.98;11.00;;;;;;;12.94;75.94;101193.91;1657158;85;21084;-81
2022/10/08 07:11:25;;;;;;;17.62;9.83;;;;;;;13.03;75.66;101190.15;1679319;85;21725;-90
2022/10/08 07:13:54;;;;;;;14.45;8.88;;;;;;;13.11;75.53;101187.67;1672802;85;21061;-82
2022/10/08 07:16:23;;;;;;;12.55;6.92;;;;;;;13.17;75.38;101185.15;1635608;84;21061;-80
2022/10/08 07:18:51;;;;;;;10.15;6.97;;;;;;;13.25;75.22;101182.26;1647002;85;21066;-81
2022/10/08 07:21:19;;;;;;;13.98;7.10;;;;;;;13.32;75.05;101178.00;1653719;85;20999;-81
2022/10/08 07:23:47;;;;;;;11.45;6.83;;;;;;;13.43;74.87;101178.23;1655751;85;21750;-80
2022/10/08 07:26:21;;;;;;;12.55;7.20;;;;;;;13.55;74.70;101183.34;1655488;85;21136;-80
2022/10/08 07:28:59;;;;;;;17.42;7.25;;;;;;;13.66;74.48;101186.17;1683126;83;21014;-80
2022/10/08 07:31:29;;;;;;;13.28;7.28;;;;;;;13.76;74.05;101185.94;1685741;85;21379;-80
2022/10/08 07:33:57;;;;;;;13.88;8.00;;;;;;;13.84;73.53;101182.11;1660548;85;21135;-80
2022/10/08 07:36:24;;;;;;;16.97;7.80;;;;;;;13.84;73.19;101179.02;1657932;85;21768;-80
2022/10/08 07:38:57;;;;;;;11.97;7.92;;;;;;;13.86;72.93;101175.09;1681315;85;21097;-85
2022/10/08 07:41:24;;;;;;;11.78;7.87;;;;;;;13.88;72.71;101170.72;1684036;85;21145;-86
2022/10/08 07:43:52;;;;;;;15.10;8.00;;;;;;;13.87;72.60;101175.13;1681789;85;21079;-80
2022/10/08 07:46:19;;;;;;;14.20;8.03;;;;;;;13.90;72.43;101179.57;1680290;85;21077;-80
2022/10/08 07:48:46;;;;;;;12.73;7.37;;;;;;;13.89;72.34;101174.72;1684749;85;21749;-81
2022/10/08 07:51:16;;;;;;;10.18;7.28;;;;;;;13.92;72.18;101173.87;1684219;85;21105;-87
2022/10/08 07:53:43;;;;;;;14.23;6.87;;;;;;;13.91;71.95;101172.98;1685346;84;21081;-84
2022/10/08 07:56:12;;;;;;;11.28;6.58;;;;;;;13.92;71.92;101168.14;1684927;84;21062;-87
2022/10/08 07:58:39;;;;;;;12.68;6.85;;;;;;;13.93;71.94;101166.41;1685223;85;21034;-88
2022/10/08 08:01:08;;;;;;;11.73;6.30;;;;;;;13.95;71.85;101168.20;1664941;85;22595;-87
2022/10/08 08:03:35;;;;;;;11.80;6.53;;;;;;;13.97;71.67;101153.68;1667179;84;21077;-87
2022/10/08 08:06:09;;;;;;;11.53;5.97;;;;;;;14.00;71.65;101151.98;1663802;84;21113;-87
2022/10/08 08:08:36;;;;;;;12.93;6.62;;;;;;;14.03;71.46;101155.55;1666698;85;21137;-87
2022/10/08 08:11:04;;;;;;;9.28;6.20;;;;;;;14.00;71.29;101144.45;1666651;85;21042;-87
2022/10/08 08:13:32;;;;;;;9.78;5.72;;;;;;;13.97;71.36;101146.63;1657103;84;21825;-89
2022/10/08 08:16:00;;;;;;;15.43;7.05;;;;;;;13.97;71.38;101152.36;1655842;85;21140;-80
2022/10/08 08:18:28;;;;;;;11.68;7.80;;;;;;;13.97;71.44;101141.33;1655912;84;21100;-81
2022/10/08 08:21:03;;;;;;;14.10;7.45;;;;;;;14.01;71.44;101140.95;1656489;85;21055;-81
2022/10/08 08:23:35;;;;;;;15.95;7.55;;;;;;;14.05;71.37;101145.42;1657602;85;21078;-81
2022/10/08 08:26:04;;;;;;;15.35;9.05;;;;;;;14.10;71.29;101145.08;1666487;83;21719;-81
2022/10/08 08:28:31;;;;;;;12.85;7.78;;;;;;;14.17;71.22;101143.41;1659495;85;21119;-81
2022/10/08 08:31:10;;;;;;;16.32;8.60;;;;;;;14.24;71.08;101151.92;1655932;85;21090;-81
2022/10/08 08:33:37;;;;;;;12.33;7.85;;;;;;;14.30;70.87;101144.50;1663505;85;21146;-81
2022/10/08 08:36:04;;;;;;;23.42;8.20;;;;;;;14.41;70.84;101148.21;1654827;85;21105;-81
2022/10/08 08:38:33;;;;;;;15.40;8.15;;;;;;;14.52;70.76;101148.39;1668872;85;22541;-81
2022/10/08 08:41:24;;;;;;;16.25;7.55;;;;;;;14.66;70.66;101145.97;1671785;84;21043;-81
2022/10/08 08:43:59;;;;;;;11.45;6.67;;;;;;;14.78;70.49;101144.83;1674442;84;21070;-81
2022/10/08 08:46:25;;;;;;;11.30;6.75;;;;;;;14.94;70.33;101144.59;1655528;85;21094;-88
2022/10/08 08:48:53;;;;;;;15.90;6.97;;;;;;;15.06;69.99;101146.09;1672225;85;21123;-82
2022/10/08 08:51:22;;;;;;;11.30;6.25;;;;;;;15.21;69.87;101144.07;1653142;85;21824;-82
2022/10/08 08:53:49;;;;;;;17.62;6.30;;;;;;;15.39;69.82;101147.80;1635621;86;21628;-88
2022/10/08 08:56:17;;;;;;;13.15;6.17;;;;;;;15.60;69.66;101152.05;1654165;85;21108;-88
2022/10/08 08:58:59;;;;;;;10.90;6.20;;;;;;;15.78;69.50;101149.15;1662707;85;21089;-89
2022/10/08 09:01:36;;;;;;;12.05;5.80;;;;;;;15.98;69.39;101158.20;1653120;85;21081;-84
2022/10/08 09:04:17;;;;;;;8.35;5.90;;;;;;;16.18;68.88;101149.50;1661048;85;21879;-89
2022/10/08 09:06:44;;;;;;;9.65;5.78;;;;;;;16.36;68.49;101144.79;1671229;84;21146;-84
2022/10/08 09:09:35;;;;;;;13.55;5.53;;;;;;;16.50;68.32;101150.66;1672746;85;21081;-82
2022/10/08 09:12:33;;;;;;;11.08;5.95;;;;;;;16.61;67.83;101139.20;1674376;85;21082;-83
2022/10/08 09:15:00;;;;;;;13.98;6.90;;;;;;;16.69;67.88;101136.17;1671453;85;21118;-90
2022/10/08 09:17:35;;;;;;;11.60;6.92;;;;;;;16.78;67.55;101136.64;1662339;84;21770;-88
2022/10/08 09:20:03;;;;;;;14.33;6.45;;;;;;;16.84;67.40;101132.30;1662336;84;21074;-88
2022/10/08 09:22:38;;;;;;;13.45;7.10;;;;;;;16.95;67.46;101131.44;1661174;85;22431;-88
2022/10/08 09:25:15;;;;;;;9.28;6.50;;;;;;;17.09;67.31;101128.42;1665798;85;21079;-88
2022/10/08 09:27:49;;;;;;;11.57;6.67;;;;;;;17.15;67.06;101124.44;1660409;85;21592;-88
2022/10/08 09:30:38;;;;;;;12.37;7.33;;;;;;;17.22;66.91;101124.04;1669690;85;21817;-88
2022/10/08 09:33:18;;;;;;;11.70;6.60;;;;;;;17.32;66.62;101122.30;1652217;85;21142;-88
2022/10/08 09:35:51;;;;;;;12.55;6.05;;;;;;;17.38;66.43;101119.64;1666865;85;21031;-88
2022/10/08 09:38:28;;;;;;;12.10;6.47;;;;;;;17.45;66.06;101115.67;1667852;85;21595;-88
2022/10/08 09:41:19;;;;;;;14.28;6.33;;;;;;;17.48;66.01;101116.14;1644824;85;21066;-87
2022/10/08 09:43:50;;;;;;;12.45;7.60;;;;;;;17.57;66.12;101109.92;1663933;85;21769;-84
2022/10/08 09:46:31;;;;;;;14.20;7.00;;;;;;;17.54;66.08;101092.19;1664255;85;21073;-84
2022/10/08 09:49:29;;;;;;;14.45;7.25;;;;;;;17.66;65.90;101109.53;1652205;85;21059;-84
2022/10/08 09:52:08;;;;;;;15.85;6.85;;;;;;;17.71;65.74;101105.97;1664901;85;21803;-83
2022/10/08 09:54:38;;;;;;;14.00;7.62;;;;;;;17.69;65.49;101104.19;1672809;85;21067;-88
2022/10/08 09:57:06;;;;;;;10.68;7.22;;;;;;;17.67;65.26;101105.95;1678984;83;21771;-88
2022/10/08 09:59:38;;;;;;;14.63;6.45;;;;;;;17.65;65.25;101105.07;1677520;85;21054;-83
2022/10/08 10:02:06;;;;;;;13.80;6.70;;;;;;;17.66;65.24;101101.54;1674238;85;21074;-83
2022/10/08 10:04:37;;;;;;;9.18;6.65;;;;;;;17.73;65.49;101094.43;1655032;85;21074;-83
2022/10/08 10:07:04;;;;;;;12.25;6.55;;;;;;;17.84;65.39;101096.69;1663084;85;21106;-88
2022/10/08 10:09:50;;;;;;;10.20;6.00;;;;;;;17.96;65.25;101100.25;1666587;85;22515;-89
2022/10/08 10:12:32;;;;;;;12.18;5.80;;;;;;;18.10;65.27;101089.16;1606564;87;21174;-83
2022/10/08 10:15:06;;;;;;;12.53;5.72;;;;;;;18.32;65.16;101089.12;1592142;87;21106;-82
2022/10/08 10:17:47;;;;;;;10.08;5.37;;;;;;;18.49;64.80;101082.42;1669526;84;21583;-82
2022/10/08 10:20:39;;;;;;;10.72;5.90;;;;;;;18.62;64.50;101077.08;1654095;85;21104;-86
2022/10/08 10:23:19;;;;;;;12.13;6.87;;;;;;;18.70;64.31;101077.05;1676753;85;21798;-87
2022/10/08 10:26:11;;;;;;;11.70;6.50;;;;;;;18.81;64.03;101068.59;1684791;85;21069;-86
2022/10/08 10:29:10;;;;;;;13.65;5.75;;;;;;;18.88;63.57;101069.44;1660379;85;21089;-86
2022/10/08 10:31:45;;;;;;;10.75;5.72;;;;;;;18.91;63.68;101068.10;1656970;84;21650;-82
2022/10/08 10:34:28;;;;;;;12.88;5.55;;;;;;;18.97;63.36;101071.19;1651021;85;21082;-86
2022/10/08 10:37:02;;;;;;;8.43;5.25;;;;;;;19.04;63.28;101067.16;1623691;86;21132;-86
2022/10/08 10:39:49;;;;;;;8.05;4.97;;;;;;;19.07;62.85;101061.36;1609476;87;21668;-82
2022/10/08 10:42:35;;;;;;;11.28;5.90;;;;;;;19.07;62.61;101064.94;1683912;85;21149;-87
2022/10/08 10:45:20;;;;;;;9.05;5.37;;;;;;;19.05;62.56;101062.72;1666628;85;21215;-82
2022/10/08 10:47:49;;;;;;;10.30;5.03;;;;;;;19.07;62.45;101065.36;1657431;85;21064;-86
2022/10/08 10:50:24;;;;;;;8.33;5.22;;;;;;;18.97;61.99;101063.19;1626325;85;22820;-86
2022/10/08 10:53:05;;;;;;;10.90;4.60;;;;;;;18.92;62.02;101062.31;1655881;85;21111;-87
2022/10/08 10:55:45;;;;;;;6.87;4.65;;;;;;;18.92;61.97;101058.31;1676771;85;21343;-84
2022/10/08 10:58:54;;;;;;;10.15;4.75;;;;;;;18.92;61.90;101056.98;1667585;85;21098;-87
2022/10/08 11:01:32;;;;;;;11.43;5.25;;;;;;;18.92;61.72;101054.31;1661259;85;21038;-82
2022/10/08 11:04:11;;;;;;;10.38;4.28;;;;;;;18.91;61.48;101058.77;1672115;85;21759;-82
2022/10/08 11:07:15;;;;;;;10.82;4.70;;;;;;;18.89;61.30;101067.69;1684556;85;21132;-83
2022/10/08 11:09:53;;;;;;;9.43;4.40;;;;;;;18.86;61.10;101061.02;1662549;84;21594;-87
2022/10/08 11:12:34;;;;;;;5.78;3.80;;;;;;;18.81;60.86;101053.05;1656976;85;21069;-87
2022/10/08 11:15:34;;;;;;;11.00;3.80;;;;;;;18.78;60.81;101051.69;1671643;85;21013;-83
2022/10/08 11:18:18;;;;;;;12.35;4.00;;;;;;;18.77;60.80;101044.14;1675764;85;21769;-82
2022/10/08 11:21:20;;;;;;;9.53;3.90;;;;;;;18.75;60.77;101045.92;1646769;84;21125;-87
2022/10/08 11:24:10;;;;;;;8.83;3.85;;;;;;;18.75;60.72;101045.92;1647294;85;21610;-87
2022/10/08 11:27:01;;;;;;;7.28;3.40;;;;;;;18.77;60.67;101040.14;1666873;84;21196;-82
2022/10/08 11:29:59;;;;;;;6.33;3.00;;;;;;;18.76;60.13;101041.47;1606193;88;21147;-82
2022/10/08 11:32:26;;;;;;;5.25;2.72;;;;;;;18.70;59.67;101041.05;1674874;85;21805;-87
2022/10/08 11:35:13;;;;;;;5.20;2.62;;;;;;;18.58;59.34;101041.08;1658842;85;21128;-87
2022/10/08 11:38:09;;;;;;;7.87;2.90;;;;;;;18.58;59.38;101042.41;1660548;85;21078;-87
2022/10/08 11:40:48;;;;;;;9.25;3.20;;;;;;;18.56;59.32;101049.11;1676947;84;21082;-82
2022/10/08 11:43:29;;;;;;;8.75;3.25;;;;;;;18.60;59.16;101044.63;1664985;85;21152;-88